Terminal Aerodrome Forecast
Issued by NWS Albuquerque, NM

Home | Current Version | Previous Version | Text Only | Print | Product List | Glossary On
Versions: 1 2 3 4 5 6 7 8 9 10 11 12
000
FTUS45 KABQ 300521
TAFABQ
TAF
KABQ 300521Z 3006/0106 09011KT P6SM BKN110
     FM301000 06006KT P6SM SCT120
     FM301900 16008KT P6SM SCT090
     FM010300 VRB05KT P6SM FEW090=

USA.gov is the U.S. government's official web portal to all federal, state and local government web resources and services.